Time;durP1;ratioP1;P1;durP2;ratioP2;P2;SDS_P1;SDS_P2;PMS_P1;PMS_P2;Temp;Humidity;BMP_temperature;BMP_pressure;BME280_temperature;BME280_humidity;BME280_pressure;Samples;Min_cycle;Max_cycle;Signal;HPM_P1;HPM_P2
2022/01/22 00:00:12;;;;;;;11.10;4.50;;;16.00;56.50;;;;;;5019293;28;20029;-69
2022/01/22 00:02:37;;;;;;;7.40;4.03;;;16.00;56.50;;;;;;5015487;28;20029;-69
2022/01/22 00:05:04;;;;;;;7.20;3.70;;;16.00;56.50;;;;;;5014795;28;20121;-69
2022/01/22 00:07:30;;;;;;;6.60;3.80;;;16.00;56.50;;;;;;5019467;28;20443;-68
2022/01/22 00:10:00;;;;;;;5.50;2.95;;;16.00;56.40;;;;;;5023420;28;20021;-69
2022/01/22 00:12:42;;;;;;;7.72;3.88;;;16.00;56.30;;;;;;5024598;28;20029;-69
2022/01/22 00:15:12;;;;;;;7.43;3.63;;;16.00;56.90;;;;;;5009566;28;20026;-69
2022/01/22 00:17:37;;;;;;;6.57;3.15;;;16.00;56.30;;;;;;5013698;28;20564;-70
2022/01/22 00:20:03;;;;;;;7.15;2.67;;;16.00;56.30;;;;;;5008679;28;20049;-70
2022/01/22 00:22:32;;;;;;;5.88;2.83;;;16.00;56.30;;;;;;5024842;28;20093;-69
2022/01/22 00:25:00;;;;;;;5.90;2.90;;;15.90;56.10;;;;;;5018890;28;20056;-69
2022/01/22 00:27:25;;;;;;;4.40;2.50;;;16.00;56.10;;;;;;5012712;28;20084;-69
2022/01/22 00:29:51;;;;;;;3.88;2.67;;;16.00;56.10;;;;;;5008188;28;20030;-68
2022/01/22 00:32:16;;;;;;;7.63;2.83;;;16.00;56.00;;;;;;5008928;28;20270;-69
2022/01/22 00:34:42;;;;;;;4.80;2.38;;;16.00;56.00;;;;;;5012505;28;20665;-69
2022/01/22 00:37:08;;;;;;;3.50;2.38;;;16.00;55.90;;;;;;5017860;28;20029;-69
2022/01/22 00:39:34;;;;;;;4.47;2.25;;;16.00;55.90;;;;;;5028672;28;20049;-69
2022/01/22 00:42:00;;;;;;;4.60;2.35;;;16.00;55.90;;;;;;5014666;28;20080;-69
2022/01/22 00:44:26;;;;;;;5.30;1.90;;;16.00;55.80;;;;;;5019928;28;20030;-68
2022/01/22 00:46:52;;;;;;;2.38;2.00;;;16.00;55.80;;;;;;5006856;28;20034;-70
2022/01/22 00:49:17;;;;;;;4.78;2.10;;;16.00;55.80;;;;;;5003926;28;20034;-67
2022/01/22 00:51:43;;;;;;;3.38;1.98;;;16.00;55.80;;;;;;5013482;28;20042;-68
2022/01/22 00:54:08;;;;;;;6.00;2.33;;;16.00;55.80;;;;;;5013564;28;20061;-68
2022/01/22 00:56:34;;;;;;;4.90;1.90;;;16.00;55.70;;;;;;5005470;28;20032;-68
2022/01/22 00:58:59;;;;;;;2.33;1.70;;;16.00;55.70;;;;;;5013799;28;20121;-68
2022/01/22 01:01:25;;;;;;;2.15;1.42;;;16.00;55.70;;;;;;5004725;28;20033;-68
2022/01/22 01:03:50;;;;;;;2.83;1.88;;;16.00;55.70;;;;;;5011843;28;20540;-68
2022/01/22 01:06:16;;;;;;;2.10;1.63;;;16.00;55.70;;;;;;5005138;28;20018;-69
2022/01/22 01:08:42;;;;;;;1.70;1.15;;;16.00;55.60;;;;;;5020246;28;20052;-68
2022/01/22 01:11:10;;;;;;;2.63;1.60;;;16.00;55.60;;;;;;5003100;28;20044;-68
2022/01/22 01:13:41;;;;;;;2.90;1.98;;;16.00;55.70;;;;;;5023574;28;20029;-68
2022/01/22 01:16:32;;;;;;;2.28;1.40;;;16.00;55.70;;;;;;5017216;28;20543;-67
2022/01/22 01:35:22;;;;;;;1.85;1.02;;;16.00;55.50;;;;;;5006293;28;20035;-68
2022/01/22 01:37:48;;;;;;;2.22;1.27;;;16.00;55.60;;;;;;5006190;28;20128;-68
2022/01/22 01:40:18;;;;;;;1.60;1.20;;;16.00;55.60;;;;;;5010213;28;20029;-68
2022/01/22 01:42:51;;;;;;;2.08;1.35;;;16.00;55.60;;;;;;5015065;28;20018;-68
2022/01/22 01:45:16;;;;;;;1.67;0.80;;;16.00;55.60;;;;;;5006583;28;20022;-68
2022/01/22 01:47:45;;;;;;;1.80;0.95;;;16.00;55.60;;;;;;5009606;28;20033;-68
2022/01/22 01:50:10;;;;;;;2.55;1.00;;;16.00;55.70;;;;;;5013257;28;20079;-68
2022/01/22 01:55:18;;;;;;;1.27;0.80;;;16.00;55.70;;;;;;5016104;28;20029;-67
2022/01/22 01:57:44;;;;;;;1.45;0.80;;;16.00;55.70;;;;;;5021303;28;20533;-69
2022/01/22 02:00:15;;;;;;;1.77;0.90;;;16.00;55.70;;;;;;5026474;28;20109;-68
2022/01/22 02:02:42;;;;;;;1.30;0.80;;;16.00;55.80;;;;;;5018969;28;20053;-68
2022/01/22 02:05:10;;;;;;;1.45;0.88;;;16.00;55.80;;;;;;5022137;28;20087;-67
2022/01/22 02:07:38;;;;;;;2.10;0.90;;;15.90;55.70;;;;;;5021560;28;20524;-68
2022/01/22 02:10:06;;;;;;;1.20;0.90;;;16.00;55.80;;;;;;5017826;28;20026;-68
2022/01/22 02:26:15;;;;;;;0.85;0.65;;;16.00;55.90;;;;;;4984489;28;20034;-67
2022/01/22 02:28:41;;;;;;;2.58;0.80;;;16.00;55.90;;;;;;4985147;28;20184;-69
2022/01/22 02:41:34;;;;;;;5.40;0.90;;;16.00;56.00;;;;;;5015090;28;20172;-68
2022/01/22 02:44:00;;;;;;;0.82;0.60;;;16.00;56.00;;;;;;5010489;28;20061;-67
2022/01/22 02:46:26;;;;;;;1.50;0.70;;;15.90;55.90;;;;;;5022185;28;20021;-67
2022/01/22 02:48:54;;;;;;;1.80;0.60;;;15.90;55.90;;;;;;5023994;28;20128;-67
2022/01/22 02:51:20;;;;;;;2.85;0.60;;;16.00;55.90;;;;;;5008961;28;20041;-68
2022/01/22 02:53:48;;;;;;;0.93;0.50;;;16.00;55.90;;;;;;5012860;28;20037;-68
2022/01/22 02:56:14;;;;;;;2.20;0.57;;;16.00;55.90;;;;;;5020339;28;20221;-67
2022/01/22 02:58:39;;;;;;;1.52;0.63;;;16.00;55.80;;;;;;5005856;28;20619;-68
2022/01/22 03:01:05;;;;;;;3.72;0.60;;;16.00;55.70;;;;;;5018913;28;20029;-68
2022/01/22 03:03:30;;;;;;;0.63;0.40;;;16.00;55.70;;;;;;5021292;28;20032;-68
2022/01/22 03:05:56;;;;;;;0.90;0.50;;;16.00;55.70;;;;;;5021619;28;20033;-68
2022/01/22 03:08:27;;;;;;;1.38;0.60;;;16.00;55.70;;;;;;5019336;28;20523;-68
2022/01/22 03:10:53;;;;;;;1.00;0.50;;;16.00;55.70;;;;;;5019746;28;20086;-67
2022/01/22 03:14:03;;;;;;;1.42;0.73;;;16.00;55.70;;;;;;5012296;28;20042;-67
2022/01/22 03:18:41;;;;;;;0.95;0.40;;;16.00;55.70;;;;;;5014228;28;20251;-68
2022/01/22 03:21:58;;;;;;;1.25;0.50;;;16.00;55.80;;;;;;5014096;28;20079;-67
2022/01/22 03:29:36;;;;;;;1.95;0.40;;;16.00;55.80;;;;;;5014491;28;21403;-68
2022/01/22 03:32:01;;;;;;;1.10;0.38;;;15.90;55.70;;;;;;5020117;28;20029;-69
2022/01/22 03:34:28;;;;;;;0.85;0.52;;;15.90;55.70;;;;;;5021472;28;20490;-69
2022/01/22 03:36:54;;;;;;;0.65;0.30;;;16.00;55.80;;;;;;5010255;28;20037;-68
2022/01/22 03:39:19;;;;;;;1.83;0.40;;;16.00;55.80;;;;;;5020621;28;20034;-69
2022/01/22 03:41:45;;;;;;;0.30;0.30;;;16.00;55.80;;;;;;5016908;28;20528;-72
2022/01/22 03:44:11;;;;;;;0.45;0.38;;;16.00;55.80;;;;;;5009005;28;20109;-69
2022/01/22 03:46:38;;;;;;;1.02;0.28;;;15.90;55.80;;;;;;5003383;28;20126;-68
2022/01/22 03:49:04;;;;;;;0.63;0.45;;;15.90;55.80;;;;;;5011374;28;20051;-67
2022/01/22 03:51:30;;;;;;;0.68;0.57;;;15.90;55.80;;;;;;5009376;28;20034;-67
2022/01/22 03:53:56;;;;;;;0.50;0.30;;;15.90;55.80;;;;;;5015583;28;20056;-68
2022/01/22 03:56:24;;;;;;;0.43;0.22;;;15.90;55.80;;;;;;5014266;28;20030;-68
2022/01/22 03:58:49;;;;;;;0.60;0.30;;;15.90;55.80;;;;;;5009900;28;20038;-66
2022/01/22 04:04:04;;;;;;;2.67;0.55;;;16.00;55.90;;;;;;5011778;28;20397;-67
2022/01/22 04:09:00;;;;;;;0.40;0.30;;;15.90;55.80;;;;;;5015498;28;20037;-68
2022/01/22 04:11:26;;;;;;;0.35;0.25;;;15.90;55.80;;;;;;5020306;28;20033;-66
2022/01/22 04:13:57;;;;;;;0.70;0.30;;;15.90;55.80;;;;;;5019934;28;20044;-68
2022/01/22 04:16:23;;;;;;;0.30;0.30;;;15.90;55.80;;;;;;5014584;28;20030;-66
2022/01/22 04:27:10;;;;;;;1.17;0.30;;;16.00;55.90;;;;;;5019521;28;20063;-68
2022/01/22 04:29:36;;;;;;;0.30;0.20;;;15.90;55.80;;;;;;5016333;28;20404;-68
2022/01/22 04:32:01;;;;;;;0.85;0.25;;;16.00;55.90;;;;;;5011875;28;20033;-68
2022/01/22 04:34:27;;;;;;;1.23;0.20;;;16.00;55.80;;;;;;5003726;28;20038;-68
2022/01/22 04:36:52;;;;;;;0.22;0.22;;;16.00;56.50;;;;;;5008261;28;20656;-67
2022/01/22 04:39:22;;;;;;;0.10;0.10;;;15.90;55.80;;;;;;5009637;28;20038;-68
2022/01/22 04:41:48;;;;;;;0.60;0.20;;;16.00;55.80;;;;;;5023124;28;20037;-66
2022/01/22 04:44:14;;;;;;;0.32;0.30;;;16.00;55.80;;;;;;5016580;28;20640;-68
2022/01/22 04:52:31;;;;;;;0.52;0.30;;;15.90;55.80;;;;;;5017478;28;20036;-68
2022/01/22 04:54:59;;;;;;;0.43;0.20;;;15.90;55.80;;;;;;5010456;28;20463;-68
2022/01/22 04:57:26;;;;;;;1.38;0.20;;;16.00;55.80;;;;;;5008149;28;20032;-67
2022/01/22 04:59:51;;;;;;;0.20;0.20;;;16.00;55.80;;;;;;5012175;28;20034;-67
2022/01/22 05:02:17;;;;;;;0.20;0.20;;;16.00;55.80;;;;;;5003621;28;20049;-67
2022/01/22 05:04:42;;;;;;;0.20;0.20;;;16.00;55.80;;;;;;5016037;28;20025;-67
2022/01/22 05:07:09;;;;;;;0.20;0.20;;;15.90;55.70;;;;;;5013314;28;20097;-65
2022/01/22 05:09:35;;;;;;;0.28;0.20;;;16.00;55.80;;;;;;5010836;28;20025;-65
2022/01/22 05:12:00;;;;;;;0.28;0.20;;;16.00;55.80;;;;;;5006786;28;20586;-67
2022/01/22 05:14:26;;;;;;;0.45;0.22;;;16.00;55.80;;;;;;5003539;28;20491;-68
2022/01/22 05:16:54;;;;;;;0.55;0.20;;;16.00;55.80;;;;;;5007336;28;20042;-67
2022/01/22 05:19:27;;;;;;;0.20;0.20;;;16.00;55.80;;;;;;5012696;28;20076;-67
2022/01/22 05:21:56;;;;;;;0.82;0.20;;;16.00;55.80;;;;;;5007137;28;20045;-67
2022/01/22 05:24:27;;;;;;;0.15;0.15;;;16.00;55.80;;;;;;5003030;28;20036;-67
2022/01/22 05:29:58;;;;;;;0.40;0.20;;;16.00;55.80;;;;;;5014007;28;20549;-68
2022/01/22 05:37:25;;;;;;;0.55;0.13;;;16.00;55.80;;;;;;5011524;28;20446;-68
2022/01/22 05:39:51;;;;;;;0.47;0.20;;;16.00;55.80;;;;;;5005970;28;20121;-68
2022/01/22 05:42:16;;;;;;;0.30;0.30;;;16.00;55.80;;;;;;5014081;28;20033;-67
2022/01/22 05:44:42;;;;;;;0.20;0.20;;;16.00;55.80;;;;;;5015548;28;20459;-68
2022/01/22 05:47:07;;;;;;;0.20;0.20;;;16.00;55.80;;;;;;5020574;28;20108;-66
2022/01/22 05:49:36;;;;;;;2.45;0.30;;;16.00;55.80;;;;;;5006997;28;20040;-67
2022/01/22 05:52:04;;;;;;;0.22;0.10;;;16.00;55.70;;;;;;5019117;28;20108;-67
2022/01/22 05:54:49;;;;;;;0.13;0.13;;;16.00;55.70;;;;;;5011119;28;20045;-65
2022/01/22 05:59:58;;;;;;;0.40;0.20;;;16.00;55.70;;;;;;5013434;28;20432;-68
2022/01/22 06:02:24;;;;;;;0.38;0.20;;;16.00;55.60;;;;;;5014094;28;20030;-68
2022/01/22 06:04:49;;;;;;;0.17;0.10;;;16.00;55.70;;;;;;5016476;28;20672;-68
2022/01/22 06:07:15;;;;;;;0.35;0.10;;;16.00;55.60;;;;;;5010764;28;20041;-67
2022/01/22 06:09:52;;;;;;;0.22;0.20;;;16.00;55.70;;;;;;5005368;28;20033;-67
2022/01/22 06:12:30;;;;;;;0.85;0.82;;;16.00;55.70;;;;;;5017632;28;20107;-68
2022/01/22 06:14:55;;;;;;;0.30;0.20;;;16.00;55.60;;;;;;5014145;28;20826;-67
2022/01/22 06:17:21;;;;;;;0.30;0.10;;;16.00;55.60;;;;;;5009455;28;20433;-68
2022/01/22 06:19:46;;;;;;;0.68;0.20;;;16.00;55.60;;;;;;5009780;28;20041;-68
2022/01/22 06:22:12;;;;;;;0.30;0.17;;;16.00;55.60;;;;;;5015497;28;20029;-67
2022/01/22 06:24:37;;;;;;;0.47;0.17;;;16.00;55.50;;;;;;5010954;28;20041;-67
2022/01/22 06:27:03;;;;;;;0.25;0.10;;;16.10;55.50;;;;;;5010144;28;20058;-68
2022/01/22 06:29:28;;;;;;;1.35;0.20;;;16.00;55.50;;;;;;5006820;28;20163;-67
2022/01/22 06:31:54;;;;;;;0.20;0.10;;;16.00;55.50;;;;;;5016199;28;21533;-67
2022/01/22 06:34:19;;;;;;;1.42;0.20;;;16.00;55.50;;;;;;5008146;28;20026;-67
2022/01/22 06:36:45;;;;;;;0.68;0.30;;;16.00;55.50;;;;;;5012164;28;20110;-65
2022/01/22 06:39:16;;;;;;;2.17;0.20;;;16.00;55.50;;;;;;5016040;28;20030;-68
2022/01/22 06:41:44;;;;;;;0.30;0.20;;;16.10;55.50;;;;;;5008467;28;20108;-67
2022/01/22 06:44:17;;;;;;;0.28;0.20;;;16.10;55.50;;;;;;5014575;28;20500;-66
2022/01/22 06:46:44;;;;;;;0.30;0.30;;;16.00;55.40;;;;;;5018285;28;20628;-67
2022/01/22 06:49:09;;;;;;;1.27;0.20;;;16.00;55.50;;;;;;5018582;28;20144;-67
2022/01/22 06:51:35;;;;;;;1.10;0.85;;;16.00;55.40;;;;;;5024127;28;20125;-66
2022/01/22 06:54:02;;;;;;;0.20;0.10;;;16.00;55.30;;;;;;5016114;28;20092;-67
2022/01/22 06:56:29;;;;;;;1.17;0.30;;;16.00;55.30;;;;;;5013948;28;20026;-68
2022/01/22 06:58:55;;;;;;;1.85;0.30;;;16.00;55.30;;;;;;5020672;28;21294;-68
2022/01/22 07:01:21;;;;;;;0.50;0.28;;;16.00;55.30;;;;;;5015659;28;20723;-68
2022/01/22 07:03:46;;;;;;;0.98;0.25;;;16.10;55.30;;;;;;5018016;28;20030;-66
2022/01/22 07:06:11;;;;;;;0.40;0.20;;;16.10;55.30;;;;;;5027514;28;20036;-68
2022/01/22 07:08:37;;;;;;;1.25;0.30;;;16.00;55.30;;;;;;5020640;28;20030;-68
2022/01/22 07:11:03;;;;;;;0.40;0.40;;;16.10;55.30;;;;;;5024298;28;20636;-68
2022/01/22 07:13:28;;;;;;;0.47;0.30;;;16.10;55.30;;;;;;5018519;28;20037;-67
2022/01/22 07:15:53;;;;;;;1.17;0.28;;;16.10;55.30;;;;;;5013737;28;20030;-67
2022/01/22 07:18:19;;;;;;;0.68;0.30;;;16.00;55.20;;;;;;5010799;28;20084;-67
2022/01/22 07:20:45;;;;;;;0.82;0.30;;;16.10;55.20;;;;;;5021284;28;20037;-65
2022/01/22 07:23:43;;;;;;;3.92;0.40;;;16.10;55.30;;;;;;5014545;28;20179;-63
2022/01/22 07:26:06;;;;;;;0.20;0.20;;;16.10;55.30;;;;;;5014725;28;20029;-67
2022/01/22 07:28:32;;;;;;;1.55;0.63;;;16.10;55.40;;;;;;5016505;28;20030;-66
2022/01/22 07:30:59;;;;;;;1.75;0.40;;;16.10;55.50;;;;;;5024121;28;20451;-67
2022/01/22 07:33:28;;;;;;;2.08;0.35;;;16.10;55.50;;;;;;5013997;28;20025;-66
2022/01/22 07:35:53;;;;;;;0.50;0.25;;;16.10;55.50;;;;;;5008415;28;20041;-67
2022/01/22 07:38:19;;;;;;;1.35;0.30;;;16.10;55.60;;;;;;5017313;28;20022;-66
2022/01/22 07:40:45;;;;;;;2.60;0.47;;;16.10;55.70;;;;;;5020228;28;20025;-66
2022/01/22 07:43:10;;;;;;;1.95;0.30;;;16.10;56.00;;;;;;5012132;28;20026;-68
2022/01/22 07:45:37;;;;;;;2.83;0.50;;;16.10;55.60;;;;;;5013937;28;20101;-67
2022/01/22 07:48:02;;;;;;;4.82;0.50;;;16.10;55.70;;;;;;5006042;28;20053;-67
2022/01/22 07:50:28;;;;;;;1.30;0.40;;;16.10;55.70;;;;;;5006109;28;20026;-67
2022/01/22 07:52:53;;;;;;;1.13;0.70;;;16.10;55.60;;;;;;5015585;28;20039;-67
2022/01/22 07:55:21;;;;;;;6.82;0.73;;;16.10;55.60;;;;;;5023789;28;20112;-67
2022/01/22 07:57:47;;;;;;;1.25;0.50;;;16.10;55.70;;;;;;5022034;28;20026;-67
2022/01/22 08:00:14;;;;;;;5.65;0.60;;;16.10;55.70;;;;;;5003603;28;20037;-68
2022/01/22 08:02:40;;;;;;;3.00;0.70;;;16.10;55.70;;;;;;5013665;28;20108;-67
2022/01/22 08:05:06;;;;;;;2.63;0.40;;;16.10;55.80;;;;;;5015635;28;20626;-67
2022/01/22 08:07:31;;;;;;;3.92;0.70;;;16.10;56.00;;;;;;5015527;28;20041;-65
2022/01/22 08:09:58;;;;;;;4.35;0.50;;;16.10;56.30;;;;;;5023390;28;20021;-66
2022/01/22 08:12:23;;;;;;;3.72;0.50;;;16.10;56.60;;;;;;5017617;28;20075;-67
2022/01/22 08:14:48;;;;;;;3.60;0.73;;;16.10;56.60;;;;;;5009695;28;20029;-66
2022/01/22 08:17:14;;;;;;;3.55;0.50;;;16.10;56.60;;;;;;5023840;28;20082;-66
2022/01/22 08:19:40;;;;;;;2.95;0.63;;;16.10;56.60;;;;;;5004571;28;20033;-67
2022/01/22 08:22:05;;;;;;;2.40;0.68;;;16.10;56.50;;;;;;5009288;28;20025;-67
2022/01/22 08:24:31;;;;;;;1.67;0.50;;;16.00;56.50;;;;;;5015220;28;20572;-66
2022/01/22 08:27:15;;;;;;;2.83;0.75;;;16.00;56.40;;;;;;5009387;28;20030;-66
2022/01/22 08:29:41;;;;;;;0.98;0.50;;;16.10;56.40;;;;;;5005245;28;20044;-66
2022/01/22 08:37:21;;;;;;;1.75;0.85;;;16.00;56.30;;;;;;5008911;28;20044;-66
2022/01/22 08:39:46;;;;;;;3.67;1.10;;;16.00;56.30;;;;;;5009885;28;20037;-66
2022/01/22 08:42:11;;;;;;;1.88;0.90;;;16.00;56.20;;;;;;5013464;28;20032;-65
2022/01/22 08:44:39;;;;;;;3.47;0.85;;;16.00;56.20;;;;;;5016100;28;20033;-66
2022/01/22 08:47:05;;;;;;;5.20;1.00;;;16.00;56.10;;;;;;5007844;28;20022;-67
2022/01/22 08:49:30;;;;;;;2.95;0.85;;;16.00;56.10;;;;;;5008327;28;20120;-64
2022/01/22 08:51:56;;;;;;;2.13;1.13;;;16.00;56.10;;;;;;5015854;28;20030;-64
2022/01/22 08:54:21;;;;;;;4.03;1.30;;;16.00;56.10;;;;;;5009454;28;20075;-65
2022/01/22 08:56:47;;;;;;;4.05;1.00;;;16.00;56.00;;;;;;5018450;28;20429;-68
2022/01/22 08:59:12;;;;;;;6.03;1.60;;;16.00;56.00;;;;;;5012609;28;20041;-66
2022/01/22 09:01:39;;;;;;;2.42;1.17;;;16.00;56.00;;;;;;5012028;28;20022;-66
2022/01/22 09:04:04;;;;;;;3.30;1.65;;;16.00;56.00;;;;;;5015613;28;20582;-69
2022/01/22 09:06:30;;;;;;;4.00;1.08;;;16.00;55.90;;;;;;5022287;28;20040;-67
2022/01/22 09:09:06;;;;;;;2.85;1.63;;;16.00;55.90;;;;;;5010994;28;20050;-67
2022/01/22 09:11:32;;;;;;;5.82;1.50;;;16.00;55.90;;;;;;5007514;28;20053;-67
2022/01/22 09:13:58;;;;;;;3.58;2.03;;;16.00;55.90;;;;;;5015436;28;20487;-65
2022/01/22 09:16:23;;;;;;;26.63;12.18;;;16.00;55.80;;;;;;5018396;28;20033;-67
2022/01/22 09:18:50;;;;;;;43.10;18.33;;;16.00;56.70;;;;;;5015306;28;20057;-67
2022/01/22 09:21:16;;;;;;;49.30;20.40;;;16.00;57.50;;;;;;5006707;28;20718;-68
2022/01/22 09:23:41;;;;;;;48.97;20.77;;;16.00;58.10;;;;;;5020488;28;20029;-67
2022/01/22 09:26:07;;;;;;;52.17;20.60;;;16.10;58.20;;;;;;5007871;28;20061;-67
2022/01/22 09:28:34;;;;;;;41.85;18.65;;;16.00;58.50;;;;;;5013855;28;20429;-66
2022/01/22 09:31:00;;;;;;;43.55;17.98;;;16.10;58.80;;;;;;5007104;28;20234;-67
2022/01/22 09:33:25;;;;;;;37.15;15.63;;;16.10;58.80;;;;;;5010775;28;20049;-68
2022/01/22 09:35:51;;;;;;;32.70;16.25;;;16.10;58.80;;;;;;5009553;28;20443;-68
2022/01/22 09:38:16;;;;;;;34.85;14.65;;;16.10;58.60;;;;;;5018547;28;20497;-68
2022/01/22 09:40:42;;;;;;;36.05;13.82;;;16.10;58.50;;;;;;5014607;28;20114;-68
2022/01/22 09:43:09;;;;;;;31.42;12.52;;;16.10;58.50;;;;;;5023957;28;20040;-68
2022/01/22 09:45:34;;;;;;;30.95;12.93;;;16.10;58.70;;;;;;5009651;28;20113;-68
2022/01/22 09:48:00;;;;;;;25.25;12.50;;;16.10;58.90;;;;;;5012278;28;20191;-67
2022/01/22 09:50:26;;;;;;;23.90;11.27;;;16.10;59.00;;;;;;5016944;28;20431;-67
2022/01/22 09:52:51;;;;;;;27.92;10.75;;;16.10;59.00;;;;;;5007178;28;20552;-67
2022/01/22 09:55:17;;;;;;;25.00;10.38;;;16.10;59.10;;;;;;5024411;28;20605;-67
2022/01/22 09:57:44;;;;;;;18.63;8.73;;;16.10;59.20;;;;;;5010525;28;20037;-68
2022/01/22 10:00:11;;;;;;;22.27;10.15;;;16.10;59.10;;;;;;5009572;28;20021;-67
2022/01/22 10:02:55;;;;;;;24.75;9.23;;;16.10;59.20;;;;;;5024966;28;20548;-66
2022/01/22 10:05:37;;;;;;;20.88;8.57;;;16.10;59.10;;;;;;5013477;28;20217;-66
2022/01/22 10:08:28;;;;;;;23.48;8.60;;;16.10;59.10;;;;;;5013673;28;20519;-66
2022/01/22 10:10:54;;;;;;;16.80;7.32;;;16.10;59.20;;;;;;5014034;28;20047;-66
2022/01/22 10:13:37;;;;;;;19.90;7.88;;;16.10;58.90;;;;;;5017709;28;20075;-66
2022/01/22 10:16:18;;;;;;;13.35;6.85;;;16.10;58.70;;;;;;5010857;28;20025;-66
2022/01/22 10:18:44;;;;;;;18.75;7.03;;;16.10;58.70;;;;;;5019847;28;20042;-67
2022/01/22 10:21:11;;;;;;;20.80;7.13;;;16.10;58.60;;;;;;5011355;28;20034;-67
2022/01/22 10:23:39;;;;;;;17.67;6.50;;;16.20;58.50;;;;;;5012039;28;20123;-67
2022/01/22 10:26:07;;;;;;;11.73;6.50;;;16.10;58.50;;;;;;5013604;28;20054;-68
2022/01/22 10:28:48;;;;;;;14.38;6.78;;;16.10;58.40;;;;;;5015005;28;20040;-67
2022/01/22 10:31:23;;;;;;;11.80;5.57;;;16.20;58.50;;;;;;5015912;28;20025;-67
2022/01/22 10:34:14;;;;;;;15.68;6.38;;;16.20;58.40;;;;;;5012300;28;20041;-67
2022/01/22 10:36:39;;;;;;;14.38;5.75;;;16.20;58.50;;;;;;5015016;28;20062;-67
2022/01/22 10:39:21;;;;;;;12.35;5.35;;;16.20;58.40;;;;;;5024706;28;20034;-65
2022/01/22 10:41:46;;;;;;;10.27;5.22;;;16.20;58.50;;;;;;5015446;28;20026;-67
2022/01/22 10:44:15;;;;;;;12.88;5.07;;;16.20;58.40;;;;;;5016923;28;20041;-67
2022/01/22 10:46:51;;;;;;;12.20;5.05;;;16.20;58.40;;;;;;5018572;28;20461;-68
2022/01/22 10:49:23;;;;;;;;;;;16.20;58.40;;;;;;5011257;28;20033;-67
2022/01/22 10:51:52;;;;;;;10.00;5.38;;;16.20;58.30;;;;;;5019969;28;19917;-66
2022/01/22 10:54:23;;;;;;;11.07;4.97;;;16.20;58.30;;;;;;5015585;28;20037;-67
2022/01/22 10:56:48;;;;;;;8.63;4.85;;;16.30;58.30;;;;;;5020517;28;20033;-65
2022/01/22 10:59:17;;;;;;;11.48;4.38;;;16.30;58.40;;;;;;5010129;28;20652;-68
2022/01/22 11:01:59;;;;;;;9.15;4.25;;;16.30;58.60;;;;;;5011491;28;20528;-66
2022/01/22 11:04:29;;;;;;;12.68;4.20;;;16.30;58.80;;;;;;5025374;28;20052;-66
2022/01/22 11:06:59;;;;;;;9.98;4.18;;;16.40;58.90;;;;;;5019778;28;20570;-67
2022/01/22 11:09:26;;;;;;;10.27;3.78;;;16.40;58.50;;;;;;5018783;28;20041;-66
2022/01/22 11:11:51;;;;;;;7.00;3.75;;;16.30;58.40;;;;;;5014296;28;20033;-67
2022/01/22 11:14:17;;;;;;;10.98;3.80;;;16.30;58.30;;;;;;5011329;28;20029;-66
2022/01/22 11:16:44;;;;;;;12.27;3.90;;;16.30;58.30;;;;;;5017453;28;20075;-66
2022/01/22 11:19:10;;;;;;;7.47;3.80;;;16.40;58.20;;;;;;5014733;28;20030;-68
2022/01/22 11:21:36;;;;;;;6.38;3.70;;;16.40;58.20;;;;;;5011689;28;20695;-68
2022/01/22 11:24:03;;;;;;;8.52;3.90;;;16.40;58.10;;;;;;5014897;28;20119;-68
2022/01/22 11:26:28;;;;;;;7.50;3.53;;;16.40;58.10;;;;;;5018062;28;20098;-67
2022/01/22 11:28:54;;;;;;;9.13;3.45;;;16.40;58.40;;;;;;5012779;28;20184;-66
2022/01/22 11:31:20;;;;;;;8.40;3.67;;;16.40;58.40;;;;;;5018557;28;20025;-67
2022/01/22 11:33:47;;;;;;;8.38;3.35;;;16.40;58.30;;;;;;5013266;28;20030;-66
2022/01/22 11:36:29;;;;;;;8.23;3.72;;;16.40;58.30;;;;;;5014971;28;20045;-65
2022/01/22 11:38:56;;;;;;;8.38;3.25;;;16.40;58.20;;;;;;5000100;28;20034;-67
2022/01/22 11:41:23;;;;;;;4.88;2.95;;;16.50;58.20;;;;;;5020218;28;20026;-68
2022/01/22 11:44:02;;;;;;;5.07;2.95;;;16.40;58.00;;;;;;5016345;28;20048;-67
2022/01/22 11:46:34;;;;;;;5.57;3.60;;;16.50;58.60;;;;;;5009841;28;20037;-67
2022/01/22 11:49:14;;;;;;;7.20;3.15;;;16.50;57.80;;;;;;5016468;28;20026;-66
2022/01/22 11:51:41;;;;;;;16.40;3.28;;;16.50;57.90;;;;;;5007916;28;20037;-66
2022/01/22 11:54:07;;;;;;;4.28;3.03;;;16.50;57.80;;;;;;5010512;28;20099;-68
2022/01/22 11:56:45;;;;;;;5.78;3.08;;;16.50;57.80;;;;;;5015285;28;20544;-69
2022/01/22 11:59:30;;;;;;;15.18;3.28;;;16.50;57.70;;;;;;5008945;28;20603;-69
2022/01/22 12:02:03;;;;;;;11.20;3.28;;;16.50;57.60;;;;;;5007273;28;20036;-68
2022/01/22 12:04:45;;;;;;;8.80;4.00;;;16.50;57.60;;;;;;5018345;28;20124;-68
2022/01/22 12:07:15;;;;;;;12.00;3.72;;;16.50;57.60;;;;;;5015806;28;20046;-69
2022/01/22 12:09:53;;;;;;;9.98;3.63;;;16.50;57.50;;;;;;5014559;28;20038;-68
2022/01/22 12:15:22;;;;;;;10.55;3.88;;;16.50;57.70;;;;;;5010701;28;20040;-67
2022/01/22 12:17:49;;;;;;;9.35;4.13;;;16.50;57.80;;;;;;5015442;28;20073;-69
2022/01/22 12:20:42;;;;;;;9.65;3.90;;;16.50;58.10;;;;;;5020454;28;20108;-68
2022/01/22 12:23:37;;;;;;;6.70;3.70;;;16.50;58.40;;;;;;5019715;28;20399;-66
2022/01/22 12:26:02;;;;;;;9.15;3.08;;;16.50;58.80;;;;;;4997182;28;20041;-67
2022/01/22 12:28:39;;;;;;;7.25;3.47;;;16.50;59.20;;;;;;5009405;28;20038;-68
2022/01/22 12:31:07;;;;;;;8.98;2.95;;;16.50;59.30;;;;;;5018151;28;20034;-67
2022/01/22 12:33:32;;;;;;;6.85;3.40;;;16.50;59.60;;;;;;5011027;28;20314;-67
2022/01/22 12:36:02;;;;;;;5.68;3.28;;;16.50;60.20;;;;;;5012343;28;20404;-67
2022/01/22 12:38:35;;;;;;;19.52;4.90;;;16.50;60.60;;;;;;5009458;28;20029;-67
2022/01/22 12:41:28;;;;;;;34.50;12.55;;;16.50;60.90;;;;;;5015464;28;20079;-66
2022/01/22 12:44:05;;;;;;;57.63;19.88;;;16.50;61.00;;;;;;5017783;28;20563;-63
2022/01/22 12:46:31;;;;;;;50.58;16.77;;;16.50;60.80;;;;;;5014549;28;20048;-68
2022/01/22 12:48:57;;;;;;;42.22;15.45;;;16.50;60.70;;;;;;5014583;28;20396;-66
2022/01/22 12:51:25;;;;;;;45.63;16.20;;;16.50;60.30;;;;;;5022180;28;20018;-66
2022/01/22 12:53:50;;;;;;;49.35;20.92;;;16.50;60.10;;;;;;5013575;28;20060;-65
2022/01/22 12:59:01;;;;;;;64.00;24.52;;;16.50;59.60;;;;;;5010915;28;20472;-65
2022/01/22 13:01:29;;;;;;;74.05;28.75;;;16.60;59.60;;;;;;5022496;28;20439;-65
2022/01/22 13:03:55;;;;;;;61.15;26.05;;;16.50;59.50;;;;;;5019586;28;20030;-66
2022/01/22 13:06:23;;;;;;;59.65;24.58;;;16.50;59.50;;;;;;5019369;28;20040;-65
2022/01/22 13:08:48;;;;;;;56.40;23.27;;;16.50;59.40;;;;;;5007367;28;20092;-65
2022/01/22 13:11:18;;;;;;;63.20;25.02;;;16.50;59.40;;;;;;5004119;28;20030;-66
2022/01/22 13:13:47;;;;;;;71.07;25.90;;;16.50;59.30;;;;;;5006903;28;20069;-67
2022/01/22 13:16:13;;;;;;;60.15;24.05;;;16.50;59.20;;;;;;5012678;28;20037;-67
2022/01/22 13:18:56;;;;;;;58.47;21.85;;;16.50;59.10;;;;;;5020749;28;20038;-68
2022/01/22 13:21:22;;;;;;;56.55;23.60;;;16.50;59.00;;;;;;5008794;28;20459;-65
2022/01/22 13:24:01;;;;;;;48.88;23.67;;;16.50;58.90;;;;;;5013307;28;20073;-65
2022/01/22 13:26:55;;;;;;;55.78;22.63;;;16.50;58.80;;;;;;5012585;28;20077;-65
2022/01/22 13:29:27;;;;;;;46.65;21.15;;;16.50;58.70;;;;;;5019124;28;20033;-65
2022/01/22 13:32:08;;;;;;;38.70;18.38;;;16.40;58.60;;;;;;5012646;28;20048;-66
2022/01/22 13:35:10;;;;;;;53.92;23.65;;;16.40;58.40;;;;;;5021250;28;20033;-66
2022/01/22 13:47:44;;;;;;;75.18;36.50;;;16.60;61.90;;;;;;5022121;28;20088;-65
2022/01/22 13:49:03;;;;;;;73.88;34.67;;;16.60;62.50;;;;;;5019512;28;20504;-68
2022/01/22 13:51:28;;;;;;;80.05;34.20;;;16.60;62.50;;;;;;5005229;28;20573;-66
2022/01/22 13:53:57;;;;;;;67.05;32.10;;;16.60;62.60;;;;;;5008604;28;20121;-69
2022/01/22 13:56:42;;;;;;;71.35;31.92;;;16.60;62.80;;;;;;5012722;28;20485;-69
2022/01/22 13:59:13;;;;;;;57.58;29.15;;;16.60;63.00;;;;;;5017007;28;20467;-68
2022/01/22 14:04:24;;;;;;;55.45;28.58;;;16.70;63.60;;;;;;5009846;28;20037;-68
2022/01/22 14:06:50;;;;;;;57.47;26.65;;;16.70;63.60;;;;;;5013685;28;20049;-68
2022/01/22 14:09:17;;;;;;;46.22;24.20;;;16.70;63.50;;;;;;5013258;28;20472;-67
2022/01/22 14:12:02;;;;;;;49.80;25.00;;;16.70;63.80;;;;;;5015835;28;20029;-68
2022/01/22 14:14:31;;;;;;;47.33;23.27;;;16.60;63.90;;;;;;5016273;28;20033;-67
2022/01/22 14:17:10;;;;;;;46.72;22.38;;;16.70;63.90;;;;;;5016761;28;20393;-67
2022/01/22 14:19:35;;;;;;;45.25;22.17;;;16.70;63.80;;;;;;5017762;28;20053;-68
2022/01/22 14:22:01;;;;;;;45.25;21.75;;;16.70;63.70;;;;;;5017999;28;20034;-69
2022/01/22 14:24:30;;;;;;;40.63;18.98;;;16.70;63.40;;;;;;5019204;28;20470;-67
2022/01/22 14:26:55;;;;;;;47.58;19.90;;;16.70;63.20;;;;;;5013232;28;20564;-66
2022/01/22 14:29:21;;;;;;;46.38;19.58;;;16.70;63.30;;;;;;5010972;28;20034;-67
2022/01/22 14:31:47;;;;;;;35.42;17.92;;;16.70;63.40;;;;;;5016735;28;20029;-67
2022/01/22 14:34:14;;;;;;;44.90;17.95;;;16.70;63.30;;;;;;5010090;28;20064;-68